createdAt,value
2022-09-01T00:00:02.430Z,97016.22
2022-09-01T00:02:32.031Z,97007.59
2022-09-01T00:05:00.252Z,97019.50
2022-09-01T00:07:32.750Z,97020.34
2022-09-01T00:10:00.499Z,97008.41
2022-09-01T00:12:29.880Z,97009.66
2022-09-01T00:14:59.122Z,97008.38
2022-09-01T00:17:27.078Z,97005.88
2022-09-01T00:19:54.760Z,97007.31
2022-09-01T00:22:21.876Z,97003.00
2022-09-01T00:24:49.334Z,96998.06
2022-09-01T00:27:16.732Z,96991.50
2022-09-01T00:29:45.187Z,96993.16
2022-09-01T00:32:12.886Z,96996.84
2022-09-01T00:34:39.923Z,96993.53
2022-09-01T00:37:07.924Z,97000.31
2022-09-01T00:39:35.080Z,96996.38
2022-09-01T00:42:02.369Z,96991.66
2022-09-01T00:44:31.365Z,96986.94
2022-09-01T00:47:01.248Z,96991.06
2022-09-01T00:49:42.514Z,96997.63
2022-09-01T00:52:19.314Z,96996.19
2022-09-01T00:54:51.032Z,96995.34
2022-09-01T00:57:18.679Z,96991.88
2022-09-01T00:59:50.418Z,96985.72
2022-09-01T01:02:17.933Z,96974.59
2022-09-01T01:04:46.573Z,96982.81
2022-09-01T01:07:15.353Z,96981.56
2022-09-01T01:09:45.102Z,96980.72
2022-09-01T01:12:14.372Z,96978.25
2022-09-01T01:14:45.839Z,96969.19
2022-09-01T01:17:13.370Z,96976.19
2022-09-01T01:20:24.907Z,96975.34
2022-09-01T01:23:31.123Z,96979.44
2022-09-01T01:26:00.110Z,96967.06
2022-09-01T01:28:33.231Z,96972.56
2022-09-01T01:31:13.037Z,96976.47
2022-09-01T01:33:49.045Z,96973.41
2022-09-01T01:36:27.206Z,96971.53
2022-09-01T01:38:56.277Z,96973.53
2022-09-01T01:41:24.739Z,96977.59
2022-09-01T01:43:52.806Z,96979.28
2022-09-01T01:46:20.775Z,96982.25
2022-09-01T01:48:52.629Z,96973.00
2022-09-01T01:51:25.241Z,96972.13
2022-09-01T01:53:53.043Z,96976.44
2022-09-01T01:56:20.331Z,96983.19
2022-09-01T01:58:47.553Z,96985.56
2022-09-01T02:01:17.783Z,96985.91
2022-09-01T02:03:44.874Z,96987.31
2022-09-01T02:06:12.358Z,96980.09
2022-09-01T02:08:41.072Z,96981.75
2022-09-01T02:11:09.111Z,96985.81
2022-09-01T02:13:36.378Z,96980.97
2022-09-01T02:16:13.439Z,96982.13
2022-09-01T02:18:44.652Z,96976.75
2022-09-01T02:21:18.332Z,96970.59
2022-09-01T02:23:49.075Z,96967.28
2022-09-01T02:26:17.731Z,96964.41
2022-09-01T02:28:54.698Z,96968.41
2022-09-01T02:31:24.379Z,96975.44
2022-09-01T02:33:51.456Z,96978.84
2022-09-01T02:36:20.805Z,96971.44
2022-09-01T02:38:49.447Z,96972.63
2022-09-01T02:41:24.048Z,96973.03
2022-09-01T02:43:51.516Z,96971.66
2022-09-01T02:46:20.563Z,96961.88
2022-09-01T02:48:49.769Z,96964.28
2022-09-01T02:51:19.496Z,96963.44
2022-09-01T02:53:52.380Z,96965.50
2022-09-01T02:56:37.884Z,96961.38
2022-09-01T03:02:51.892Z,96977.28
2022-09-01T03:05:30.018Z,96978.84
2022-09-01T03:08:03.913Z,96975.16
2022-09-01T03:10:42.592Z,96980.88
2022-09-01T03:13:16.782Z,96979.22
2022-09-01T03:15:44.972Z,96991.81
2022-09-01T03:18:14.559Z,96983.22
2022-09-01T03:20:44.835Z,96992.84
2022-09-01T03:23:15.232Z,96987.13
2022-09-01T03:25:48.358Z,96978.25
2022-09-01T03:28:16.662Z,96994.81
2022-09-01T03:30:52.684Z,96989.66
2022-09-01T03:33:23.228Z,96993.25
2022-09-01T03:35:50.494Z,96988.31
2022-09-01T03:38:21.268Z,96995.91
2022-09-01T03:40:49.902Z,96998.00
2022-09-01T03:43:19.261Z,97000.63
2022-09-01T03:45:46.968Z,97003.06
2022-09-01T03:48:16.619Z,97000.63
2022-09-01T03:50:46.530Z,97002.06
2022-09-01T03:53:17.291Z,96997.97
2022-09-01T03:55:47.420Z,97002.63
2022-09-01T03:58:21.488Z,96998.56
2022-09-01T04:00:55.499Z,96995.22
2022-09-01T04:03:32.053Z,96993.00
2022-09-01T04:06:01.264Z,96993.75
2022-09-01T04:08:32.943Z,96994.84
2022-09-01T04:11:04.006Z,96996.28
2022-09-01T04:13:39.872Z,96979.78
2022-09-01T04:16:31.066Z,96990.22
2022-09-01T04:19:00.587Z,96995.28
2022-09-01T04:21:27.961Z,96993.63
2022-09-01T04:23:58.070Z,96996.56
2022-09-01T04:26:29.039Z,96993.13
2022-09-01T04:28:56.298Z,96996.69
2022-09-01T04:31:23.369Z,96991.38
2022-09-01T04:33:55.973Z,97000.38
2022-09-01T04:36:26.227Z,97003.69
2022-09-01T04:39:00.932Z,96998.84
2022-09-01T04:41:33.624Z,97005.06
2022-09-01T04:44:05.487Z,97005.00
2022-09-01T04:46:35.945Z,97005.97
2022-09-01T04:49:13.283Z,97008.47
2022-09-01T04:51:50.034Z,97003.16
2022-09-01T04:54:21.521Z,97005.59
2022-09-01T04:56:55.567Z,97004.41
2022-09-01T04:59:27.377Z,97013.03
2022-09-01T05:01:57.822Z,97007.19
2022-09-01T05:04:28.212Z,97008.91
2022-09-01T05:07:01.381Z,97013.44
2022-09-01T05:09:36.205Z,97005.59
2022-09-01T05:12:12.887Z,97007.81
2022-09-01T05:14:48.956Z,97003.44
2022-09-01T05:17:17.493Z,97015.53
2022-09-01T05:19:47.975Z,97003.75
2022-09-01T05:22:15.998Z,97011.06
2022-09-01T05:24:43.047Z,97010.53
2022-09-01T05:27:10.874Z,96997.75
2022-09-01T05:29:38.946Z,96992.38
2022-09-01T05:32:10.461Z,96991.88
2022-09-01T05:34:40.100Z,96996.13
2022-09-01T05:37:09.139Z,96993.75
2022-09-01T05:39:38.777Z,96992.34
2022-09-01T05:42:08.859Z,96994.22
2022-09-01T05:44:37.053Z,96989.28
2022-09-01T05:47:05.664Z,96990.72
2022-09-01T05:49:33.467Z,96991.41
2022-09-01T05:52:01.007Z,96995.47
2022-09-01T05:54:29.721Z,96991.25
2022-09-01T05:57:12.622Z,96991.38
2022-09-01T05:59:41.722Z,96993.59
2022-09-01T06:02:09.585Z,96992.00
2022-09-01T06:04:41.431Z,96979.06
2022-09-01T06:07:12.638Z,96980.47
2022-09-01T06:09:42.587Z,96989.69
2022-09-01T06:12:18.368Z,96970.41
2022-09-01T06:14:47.407Z,96979.13
2022-09-01T06:17:16.924Z,96981.13
2022-09-01T06:19:44.713Z,96979.50
2022-09-01T06:22:12.426Z,96980.47
2022-09-01T06:24:43.947Z,96978.50
2022-09-01T06:27:12.937Z,96973.09
2022-09-01T06:29:40.221Z,96959.16
2022-09-01T06:32:12.854Z,96972.16
2022-09-01T06:34:46.351Z,96959.19
2022-09-01T06:37:13.694Z,96961.97
2022-09-01T06:39:40.659Z,96956.03
2022-09-01T06:42:09.784Z,96970.59
2022-09-01T06:44:40.697Z,96970.19
2022-09-01T06:47:09.347Z,96969.63
2022-09-01T06:49:37.241Z,96973.38
2022-09-01T06:52:05.851Z,96965.28
2022-09-01T06:54:35.155Z,96970.84
2022-09-01T06:59:52.596Z,96965.78
2022-09-01T07:02:26.423Z,96960.38
2022-09-01T07:04:54.283Z,96964.25
2022-09-01T07:10:25.737Z,96964.34
2022-09-01T07:13:11.865Z,96969.56
2022-09-01T07:18:31.945Z,96965.13
2022-09-01T07:21:07.383Z,96958.72
2022-09-01T07:24:09.005Z,96955.75
2022-09-01T07:26:25.681Z,96953.63
2022-09-01T07:29:01.649Z,96953.00
2022-09-01T07:32:43.805Z,96947.22
2022-09-01T07:34:41.664Z,96950.72
2022-09-01T07:43:22.729Z,96941.19
2022-09-01T07:45:59.746Z,96938.09
2022-09-01T07:51:37.684Z,96936.56
2022-09-01T07:54:06.314Z,96933.63
2022-09-01T07:56:37.577Z,96926.63
2022-09-01T07:59:08.512Z,96927.00
2022-09-01T08:01:37.603Z,96921.31
2022-09-01T08:04:04.756Z,96927.00
2022-09-01T08:06:39.336Z,96920.16
2022-09-01T08:09:11.479Z,96933.47
2022-09-01T08:12:01.199Z,96921.00
2022-09-01T08:14:26.723Z,96938.31
2022-09-01T08:16:59.198Z,96935.84
2022-09-01T08:19:44.102Z,96924.25
2022-09-01T08:22:11.187Z,96924.81
2022-09-01T08:24:38.419Z,96923.75
2022-09-01T08:27:05.562Z,96909.41
2022-09-01T08:29:33.502Z,96920.56
2022-09-01T08:32:01.222Z,96920.25
2022-09-01T08:34:28.468Z,96912.91
2022-09-01T08:36:55.507Z,96917.81
2022-09-01T08:39:22.537Z,96900.44
2022-09-01T08:42:22.132Z,96903.69
2022-09-01T08:45:07.292Z,96909.13
2022-09-01T08:47:49.276Z,96905.31
2022-09-01T08:50:22.521Z,96894.75
2022-09-01T08:53:11.268Z,96900.16
2022-09-01T08:55:44.533Z,96886.75
2022-09-01T08:58:16.003Z,96886.22
2022-09-01T09:00:55.098Z,96889.25
2022-09-01T09:03:40.558Z,96893.56
2022-09-01T09:06:26.378Z,96877.75
2022-09-01T09:08:58.211Z,96878.78
2022-09-01T09:11:53.571Z,96874.72
2022-09-01T09:14:43.135Z,96873.59
2022-09-01T09:17:11.301Z,96880.88
2022-09-01T09:19:41.657Z,96877.38
2022-09-01T09:22:13.248Z,96868.75
2022-09-01T09:24:50.526Z,96868.06
2022-09-01T09:27:28.043Z,96870.47
2022-09-01T09:30:05.699Z,96861.75
2022-09-01T09:33:46.701Z,96868.03
2022-09-01T09:36:36.663Z,96860.44
2022-09-01T09:39:12.535Z,96862.22
2022-09-01T09:41:41.776Z,96874.16
2022-09-01T09:44:30.247Z,96860.34
2022-09-01T09:46:58.044Z,96853.56
2022-09-01T09:49:42.254Z,96848.53
2022-09-01T09:52:19.359Z,96843.53
2022-09-01T09:55:06.915Z,96849.69
2022-09-01T09:57:40.215Z,96837.97
2022-09-01T10:00:29.768Z,96847.22
2022-09-01T10:03:04.684Z,96835.00
2022-09-01T10:05:51.881Z,96841.53
2022-09-01T10:08:28.443Z,96839.38
2022-09-01T10:10:58.153Z,96834.75
2022-09-01T10:13:29.386Z,96834.69
2022-09-01T10:16:10.490Z,96834.94
2022-09-01T10:18:41.828Z,96832.03
2022-09-01T10:21:13.900Z,96836.16
2022-09-01T10:23:42.128Z,96831.09
2022-09-01T10:26:12.222Z,96826.97
2022-09-01T10:28:51.602Z,96829.13
2022-09-01T10:31:20.767Z,96830.78
2022-09-01T10:33:49.064Z,96824.88
2022-09-01T10:36:17.347Z,96833.66
2022-09-01T10:38:50.323Z,96840.72
2022-09-01T10:41:44.075Z,96832.03
2022-09-01T10:44:35.786Z,96819.81
2022-09-01T10:47:30.413Z,96825.94
2022-09-01T10:50:21.830Z,96813.34
2022-09-01T10:52:51.360Z,96815.66
2022-09-01T10:55:25.472Z,96818.59
2022-09-01T11:01:41.066Z,96812.63
2022-09-01T11:03:57.981Z,96811.13
2022-09-01T11:07:11.559Z,96801.66
2022-09-01T11:09:39.087Z,96807.75
2022-09-01T11:12:12.030Z,96800.25
2022-09-01T11:15:08.225Z,96794.31
2022-09-01T11:17:54.730Z,96795.81
2022-09-01T11:20:26.833Z,96788.56
2022-09-01T11:23:05.615Z,96792.75
2022-09-01T11:28:42.147Z,96797.84
2022-09-01T11:31:09.136Z,96794.09
2022-09-01T11:34:13.523Z,96800.06
2022-09-01T11:36:50.111Z,96798.94
2022-09-01T11:39:19.021Z,96805.47
2022-09-01T11:42:04.712Z,96796.22
2022-09-01T11:45:13.263Z,96796.78
2022-09-01T11:47:53.008Z,96801.91
2022-09-01T11:50:23.776Z,96802.72
2022-09-01T11:53:04.911Z,96811.94
2022-09-01T11:55:35.555Z,96812.72
2022-09-01T11:58:03.115Z,96818.13
2022-09-01T12:00:38.615Z,96819.97
2022-09-01T12:03:20.856Z,96814.19
2022-09-01T12:05:54.846Z,96831.44
2022-09-01T12:08:24.105Z,96840.53
2022-09-01T12:10:51.629Z,96837.03
2022-09-01T12:13:24.307Z,96834.81
2022-09-01T12:16:19.445Z,96840.16
2022-09-01T12:18:51.664Z,96844.63
2022-09-01T12:21:33.134Z,96833.19
2022-09-01T12:24:15.271Z,96848.22
2022-09-01T12:26:43.771Z,96840.50
2022-09-01T12:29:14.086Z,96843.78
2022-09-01T12:31:46.034Z,96852.09
2022-09-01T12:34:25.489Z,96849.78
2022-09-01T12:37:25.550Z,96846.50
2022-09-01T12:39:57.582Z,96849.41
2022-09-01T12:42:25.284Z,96849.94
2022-09-01T12:44:58.359Z,96839.38
2022-09-01T12:47:34.409Z,96854.56
2022-09-01T12:50:29.641Z,96843.34
2022-09-01T12:53:14.054Z,96847.38
2022-09-01T12:55:48.694Z,96844.56
2022-09-01T12:58:26.099Z,96853.03
2022-09-01T13:01:17.398Z,96854.47
2022-09-01T13:04:28.818Z,96871.09
2022-09-01T13:07:01.061Z,96873.00
2022-09-01T13:09:28.580Z,96867.09
2022-09-01T13:12:11.678Z,96864.53
2022-09-01T13:14:38.807Z,96861.97
2022-09-01T13:17:06.227Z,96883.03
2022-09-01T13:19:41.103Z,96871.13
2022-09-01T13:22:08.098Z,96869.94
2022-09-01T13:24:35.599Z,96869.69
2022-09-01T13:29:49.599Z,96863.47
2022-09-01T13:32:19.143Z,96865.16
2022-09-01T13:34:50.491Z,96874.41
2022-09-01T13:37:22.361Z,96877.66
2022-09-01T13:39:49.950Z,96866.44
2022-09-01T13:42:18.400Z,96879.19
2022-09-01T13:44:49.660Z,96864.56
2022-09-01T13:47:28.946Z,96874.97
2022-09-01T13:50:12.592Z,96876.03
2022-09-01T13:52:45.891Z,96880.94
2022-09-01T13:55:28.530Z,96874.16
2022-09-01T13:57:56.218Z,96876.97
2022-09-01T14:00:29.475Z,96884.94
2022-09-01T14:02:59.853Z,96885.84
2022-09-01T14:05:34.014Z,96881.63
2022-09-01T14:08:01.991Z,96884.91
2022-09-01T14:10:33.532Z,96876.34
2022-09-01T14:13:01.420Z,96872.69
2022-09-01T14:15:28.420Z,96861.84
2022-09-01T14:17:57.630Z,96876.34
2022-09-01T14:20:33.386Z,96880.72
2022-09-01T14:23:06.822Z,96871.91
2022-09-01T14:25:34.878Z,96863.84
2022-09-01T14:28:03.422Z,96869.78
2022-09-01T14:30:33.056Z,96866.06
2022-09-01T14:33:01.364Z,96871.91
2022-09-01T14:35:28.975Z,96875.06
2022-09-01T14:38:07.672Z,96872.50
2022-09-01T14:40:37.681Z,96872.97
2022-09-01T14:43:10.638Z,96875.09
2022-09-01T14:45:40.245Z,96870.19
2022-09-01T14:48:09.317Z,96866.53
2022-09-01T14:50:41.602Z,96870.19
2022-09-01T14:53:10.054Z,96866.78
2022-09-01T14:55:37.115Z,96867.72
2022-09-01T14:58:05.995Z,96870.16
2022-09-01T15:00:36.062Z,96868.44
2022-09-01T15:03:03.766Z,96869.47
2022-09-01T15:05:39.826Z,96872.66
2022-09-01T15:08:08.709Z,96862.09
2022-09-01T15:10:36.887Z,96865.03
2022-09-01T15:13:04.576Z,96868.66
2022-09-01T15:15:32.504Z,96866.06
2022-09-01T15:18:03.010Z,96860.94
2022-09-01T15:20:46.877Z,96856.47
2022-09-01T15:23:21.572Z,96858.47
2022-09-01T15:25:53.960Z,96864.19
2022-09-01T15:28:22.897Z,96849.38
2022-09-01T15:30:50.342Z,96846.47
2022-09-01T15:33:18.824Z,96851.94
2022-09-01T15:35:47.127Z,96836.13
2022-09-01T15:38:18.681Z,96835.56
2022-09-01T15:40:55.266Z,96831.69
2022-09-01T15:43:26.178Z,96830.16
2022-09-01T15:45:53.284Z,96836.69
2022-09-01T15:48:20.610Z,96828.50
2022-09-01T15:50:47.777Z,96824.41
2022-09-01T15:53:15.056Z,96825.22
2022-09-01T15:55:47.126Z,96817.88
2022-09-01T15:58:16.547Z,96823.84
2022-09-01T16:00:45.382Z,96821.25
2022-09-01T16:03:13.150Z,96814.97
2022-09-01T16:05:41.254Z,96817.31
2022-09-01T16:08:11.692Z,96813.44
2022-09-01T16:10:40.272Z,96812.41
2022-09-01T16:13:07.455Z,96812.06
2022-09-01T16:15:35.701Z,96815.22
2022-09-01T16:18:17.797Z,96814.97
2022-09-01T16:20:55.428Z,96817.22
2022-09-01T16:23:25.429Z,96817.09
2022-09-01T16:26:01.313Z,96813.59
2022-09-01T16:28:37.355Z,96822.84
2022-09-01T16:31:31.847Z,96819.09
2022-09-01T16:34:03.909Z,96814.53
2022-09-01T16:37:00.057Z,96816.53
2022-09-01T16:39:48.725Z,96817.28
2022-09-01T16:42:23.011Z,96821.59
2022-09-01T16:45:02.332Z,96816.13
2022-09-01T16:47:59.307Z,96822.16
2022-09-01T16:50:26.118Z,96828.13
2022-09-01T16:53:17.846Z,96829.94
2022-09-01T16:56:08.312Z,96830.59
2022-09-01T16:59:09.269Z,96830.34
2022-09-01T17:01:45.586Z,96843.19
2022-09-01T17:04:32.027Z,96847.38
2022-09-01T17:07:20.108Z,96850.38
2022-09-01T17:10:02.766Z,96845.94
2022-09-01T17:12:57.006Z,96847.56
2022-09-01T17:15:41.227Z,96842.44
2022-09-01T17:18:30.533Z,96854.31
2022-09-01T17:21:09.028Z,96855.88
2022-09-01T17:23:47.010Z,96863.25
2022-09-01T17:26:25.699Z,96868.66
2022-09-01T17:29:07.231Z,96873.41
2022-09-01T17:32:05.111Z,96864.28
2022-09-01T17:34:53.796Z,96875.25
2022-09-01T17:38:09.735Z,96881.28
2022-09-01T17:41:16.273Z,96888.84
2022-09-01T17:43:55.715Z,96891.31
2022-09-01T17:46:43.963Z,96901.63
2022-09-01T17:49:26.598Z,96906.88
2022-09-01T17:51:59.393Z,96908.38
2022-09-01T17:54:38.622Z,96906.84
2022-09-01T17:57:33.182Z,96904.44
2022-09-01T18:00:24.087Z,96915.91
2022-09-01T18:03:30.993Z,96912.63
2022-09-01T18:05:58.887Z,96920.06
2022-09-01T18:08:38.580Z,96909.78
2022-09-01T18:11:26.815Z,96916.81
2022-09-01T18:14:00.343Z,96912.09
2022-09-01T18:16:36.855Z,96910.47
2022-09-01T18:19:11.993Z,96911.28
2022-09-01T18:21:49.470Z,96917.25
2022-09-01T18:24:21.792Z,96909.00
2022-09-01T18:26:52.333Z,96918.06
2022-09-01T18:29:20.447Z,96924.50
2022-09-01T18:32:08.644Z,96925.56
2022-09-01T18:34:51.185Z,96928.91
2022-09-01T18:37:45.074Z,96924.31
2022-09-01T18:40:31.790Z,96926.41
2022-09-01T18:43:10.005Z,96926.03
2022-09-01T18:45:54.899Z,96933.47
2022-09-01T18:48:39.396Z,96923.63
2022-09-01T18:51:22.598Z,96933.50
2022-09-01T18:54:10.305Z,96931.00
2022-09-01T18:56:52.713Z,96931.88
2022-09-01T18:59:38.441Z,96929.19
2022-09-01T19:02:44.379Z,96938.47
2022-09-01T19:05:36.973Z,96939.31
2022-09-01T19:08:25.064Z,96935.00
2022-09-01T19:11:07.852Z,96922.03
2022-09-01T19:14:01.591Z,96923.50
2022-09-01T19:16:57.008Z,96926.22
2022-09-01T19:19:24.159Z,96929.09
2022-09-01T19:21:56.295Z,96932.38
2022-09-01T19:24:34.198Z,96929.34
2022-09-01T19:27:09.502Z,96926.66
2022-09-01T19:29:59.203Z,96924.41
2022-09-01T19:32:29.778Z,96928.28
2022-09-01T19:35:05.525Z,96923.16
2022-09-01T19:37:32.819Z,96926.25
2022-09-01T19:40:01.172Z,96931.59
2022-09-01T19:42:56.165Z,96929.72
2022-09-01T19:45:54.135Z,96938.19
2022-09-01T19:48:28.781Z,96935.69
2022-09-01T19:51:01.099Z,96941.03
2022-09-01T19:54:01.757Z,96939.00
2022-09-01T19:56:39.787Z,96943.91
2022-09-01T19:59:14.607Z,96941.06
2022-09-01T20:01:47.878Z,96942.91
2022-09-01T20:04:39.793Z,96939.19
2022-09-01T20:07:14.516Z,96944.75
2022-09-01T20:09:54.688Z,96952.13
2022-09-01T20:12:24.637Z,96962.00
2022-09-01T20:15:04.238Z,96954.59
2022-09-01T20:17:33.863Z,96959.75
2022-09-01T20:20:26.239Z,96955.81
2022-09-01T20:23:04.260Z,96958.91
2022-09-01T20:25:42.343Z,96960.56
2022-09-01T20:28:27.677Z,96954.16
2022-09-01T20:31:14.810Z,96950.22
2022-09-01T20:33:56.944Z,96948.63
2022-09-01T20:36:43.843Z,96947.97
2022-09-01T20:39:41.383Z,96944.25
2022-09-01T20:42:36.046Z,96946.28
2022-09-01T20:45:17.862Z,96957.16
2022-09-01T20:47:54.188Z,96960.63
2022-09-01T20:50:35.191Z,96954.88
2022-09-01T20:53:27.884Z,96955.69
2022-09-01T20:56:24.681Z,96952.59
2022-09-01T20:59:02.132Z,96963.03
2022-09-01T21:02:05.099Z,96959.94
2022-09-01T21:04:57.095Z,96957.31
2022-09-01T21:07:33.482Z,96957.34
2022-09-01T21:10:15.655Z,96958.94
2022-09-01T21:12:51.369Z,96963.03
2022-09-01T21:15:33.706Z,96963.84
2022-09-01T21:18:21.643Z,96967.16
2022-09-01T21:20:54.770Z,96965.13
2022-09-01T21:23:21.931Z,96966.38
2022-09-01T21:25:50.316Z,96963.69
2022-09-01T21:28:20.463Z,96966.78
2022-09-01T21:30:55.320Z,96963.72
2022-09-01T21:33:23.684Z,96970.50
2022-09-01T21:35:52.721Z,96963.91
2022-09-01T21:38:19.873Z,96965.97
2022-09-01T21:40:48.298Z,96965.97
2022-09-01T21:43:25.633Z,96970.88
2022-09-01T21:45:52.953Z,96966.19
2022-09-01T21:48:20.140Z,96967.63
2022-09-01T21:50:47.966Z,96969.31
2022-09-01T21:53:15.266Z,96968.06
2022-09-01T21:55:42.568Z,96961.06
2022-09-01T21:58:10.418Z,96967.63
2022-09-01T22:00:43.701Z,96968.06
2022-09-01T22:03:12.558Z,96967.22
2022-09-01T22:05:42.051Z,96963.56
2022-09-01T22:08:12.437Z,96964.81
2022-09-01T22:10:49.631Z,96962.34
2022-09-01T22:13:18.281Z,96962.34
2022-09-01T22:15:49.149Z,96963.16
2022-09-01T22:18:17.603Z,96957.06
2022-09-01T22:20:46.233Z,96962.00
2022-09-01T22:23:15.474Z,96959.09
2022-09-01T22:25:44.844Z,96952.50
2022-09-01T22:28:12.961Z,96955.81
2022-09-01T22:30:51.287Z,96952.94
2022-09-01T22:33:20.117Z,96954.13
2022-09-01T22:35:52.895Z,96961.09
2022-09-01T22:38:22.001Z,96964.81
2022-09-01T22:40:55.600Z,96956.78
2022-09-01T22:43:24.525Z,96947.72
2022-09-01T22:45:52.303Z,96952.03
2022-09-01T22:48:22.875Z,96953.72
2022-09-01T22:50:51.246Z,96947.13
2022-09-01T22:53:20.262Z,96946.72
2022-09-01T22:55:51.240Z,96939.34
2022-09-01T22:58:18.991Z,96943.66
2022-09-01T23:00:48.299Z,96940.56
2022-09-01T23:03:16.213Z,96936.88
2022-09-01T23:05:44.332Z,96932.72
2022-09-01T23:08:12.271Z,96943.81
2022-09-01T23:10:39.920Z,96931.72
2022-09-01T23:13:07.624Z,96930.66
2022-09-01T23:15:34.716Z,96933.94
2022-09-01T23:18:01.879Z,96926.53
2022-09-01T23:20:29.127Z,96927.78
2022-09-01T23:22:56.592Z,96931.47
2022-09-01T23:25:24.870Z,96932.25
2022-09-01T23:27:51.986Z,96927.53
2022-09-01T23:30:19.283Z,96931.44
2022-09-01T23:32:46.427Z,96934.53
2022-09-01T23:35:13.736Z,96932.06
2022-09-01T23:37:43.564Z,96942.09
2022-09-01T23:40:11.051Z,96931.84
2022-09-01T23:42:38.565Z,96937.19
2022-09-01T23:45:06.266Z,96934.91
2022-09-01T23:47:33.420Z,96936.09
2022-09-01T23:50:00.551Z,96926.06
2022-09-01T23:52:27.592Z,96934.66
2022-09-01T23:54:54.907Z,96924.78
2022-09-01T23:57:22.162Z,96923.34
2022-09-01T23:59:49.516Z,96921.34
